Track Сафонов Александр

Time Latitude Longitude Accuracy (66% radius in meters) Altitude (meters) Speed (km/hour) Bearing (degrees) Battery (%) GPS flag
10:59:22 51.810980 39.391128 4 116.88371930715 0 196.92672729492 76 1 delete
10:59:07 51.810980 39.391128 4 116.86175219876 0 196.92672729492 76 1 delete
10:58:55 51.810980 39.391128 6 116.81221916389 0 196.92672729492 76 1 delete
10:58:43 51.810980 39.391128 4 116.77503923627 0 196.92672729492 76 1 delete
10:58:31 51.810980 39.391128 4 116.7458906705 0 196.92672729492 76 1 delete
10:58:19 51.810980 39.391128 4 116.69486502116 0 196.92672729492 76 1 delete
10:58:07 51.810980 39.391128 4 116.64973849116 0 196.92672729492 76 1 delete
10:57:52 51.810980 39.391128 4 116.6003529597 0 196.92672729492 76 1 delete
10:57:37 51.810980 39.391128 4 116.5239112711 0 196.92672729492 76 1 delete
10:57:22 51.810980 39.391128 4 116.4893666573 0 196.92672729492 76 1 delete
10:57:10 51.810980 39.391128 4 116.48692529246 0 196.92672729492 76 1 delete
10:57:02 51.810980 39.391128 4 116.51284915177 0 196.92672729492 76 1 delete
10:56:44 51.810980 39.391128 4 116.62034751888 0 196.92672729492 76 1 delete
10:56:20 51.810980 39.391128 4 116.53290323006 0 196.92672729492 76 1 delete
10:56:05 51.810980 39.391128 4 116.40351040641 0 196.92672729492 76 1 delete
10:55:53 51.810980 39.391128 4 116.33845042736 0 196.92672729492 76 1 delete
10:55:41 51.810980 39.391128 4 116.30246788623 0 196.92672729492 76 1 delete
10:55:26 51.810980 39.391128 4 116.29049983192 0 196.92672729492 76 1 delete
10:54:17 51.810980 39.391128 4 115.57368262601 0 196.92672729492 76 1 delete
10:53:56 51.810980 39.391128 4 115.52946326081 0 196.92672729492 76 1 delete
10:53:44 51.810980 39.391128 4 115.54129551816 0 196.92672729492 76 1 delete
10:53:32 51.810980 39.391128 4 115.60064490678 0 196.92672729492 76 1 delete
10:53:20 51.810980 39.391128 4 115.64420181203 0 196.92672729492 76 1 delete
10:53:08 51.810980 39.391128 4 115.67538702217 0 196.92672729492 76 1 delete
10:52:56 51.810980 39.391128 4 115.70978194382 0 196.92672729492 76 1 delete
10:52:41 51.810980 39.391128 4 115.74808002986 0 196.92672729492 76 1 delete
10:52:29 51.810980 39.391128 4 115.80942713199 0 196.92672729492 76 1 delete
10:52:17 51.810980 39.391128 4 115.90117737259 0 196.92672729492 76 1 delete
10:52:05 51.810980 39.391128 4 116.03792158192 0 196.92672729492 76 1 delete
10:51:53 51.810980 39.391128 6 116.17558430838 0 196.92672729492 76 1 delete
10:51:41 51.810980 39.391128 4 116.28566721103 0 196.92672729492 76 1 delete
10:51:23 51.810980 39.391128 6 116.42310351509 0 196.92672729492 76 1 delete
10:51:08 51.810980 39.391128 6 116.55457405375 0 196.92672729492 76 1 delete
10:50:56 51.810980 39.391128 6 116.6525769917 0 196.92672729492 76 1 delete
10:50:41 51.810980 39.391128 4 116.68949005103 0 196.92672729492 79 1 delete
10:50:29 51.810980 39.391128 4 116.67276453636 0 196.92672729492 79 1 delete
10:50:17 51.810980 39.391128 4 116.64973977749 0 196.92672729492 79 1 delete
10:50:05 51.810980 39.391128 4 116.66780270182 0 196.92672729492 79 1 delete
10:49:53 51.810980 39.391128 4 116.70266642199 0 196.92672729492 79 1 delete
10:49:41 51.810980 39.391128 4 116.74882573539 0 196.92672729492 79 1 delete
10:49:26 51.810980 39.391128 4 116.82306164339 0 196.92672729492 79 1 delete
10:49:14 51.810980 39.391128 4 116.89487752296 0 196.92672729492 79 1 delete
10:49:02 51.810980 39.391128 4 116.9855461513 0 196.92672729492 79 1 delete
10:48:50 51.810980 39.391128 4 117.09358211438 0 196.92672729492 79 1 delete
10:48:38 51.810980 39.391128 4 117.19854561714 0 196.92672729492 79 1 delete
10:48:26 51.810980 39.391128 4 117.28183357733 0 196.92672729492 79 1 delete
10:48:14 51.810980 39.391128 4 117.38152746737 0 196.92672729492 79 1 delete
10:48:02 51.810980 39.391128 4 117.44651634491 0 196.92672729492 79 1 delete
10:47:47 51.810980 39.391128 4 117.4966556727 0 196.92672729492 79 1 delete
10:47:38 51.810980 39.391128 4 117.53403181841 0 196.92672729492 79 1 delete